sensor_id;sensor_type;location;lat;lon;timestamp;temperature;humidity
4354;DHT22;11018;51.258;6.806;2023-07-16T00:01:52;19.70;53.40
4354;DHT22;11018;51.258;6.806;2023-07-16T00:04:17;19.70;53.30
4354;DHT22;11018;51.258;6.806;2023-07-16T00:06:43;19.80;52.30
4354;DHT22;11018;51.258;6.806;2023-07-16T00:09:08;19.80;53.00
4354;DHT22;11018;51.258;6.806;2023-07-16T00:11:34;19.80;52.10
4354;DHT22;11018;51.258;6.806;2023-07-16T00:13:59;19.90;52.50
4354;DHT22;11018;51.258;6.806;2023-07-16T00:16:27;19.90;52.40
4354;DHT22;11018;51.258;6.806;2023-07-16T00:18:52;19.90;51.10
4354;DHT22;11018;51.258;6.806;2023-07-16T00:21:18;20.00;50.80
4354;DHT22;11018;51.258;6.806;2023-07-16T00:23:44;20.20;49.10
4354;DHT22;11018;51.258;6.806;2023-07-16T00:26:09;20.20;49.10
4354;DHT22;11018;51.258;6.806;2023-07-16T00:28:35;20.10;49.40
4354;DHT22;11018;51.258;6.806;2023-07-16T00:31:01;20.10;49.60
4354;DHT22;11018;51.258;6.806;2023-07-16T00:33:26;19.80;51.90
4354;DHT22;11018;51.258;6.806;2023-07-16T00:35:52;19.80;52.00
4354;DHT22;11018;51.258;6.806;2023-07-16T00:38:18;19.60;53.70
4354;DHT22;11018;51.258;6.806;2023-07-16T00:40:44;19.50;54.90
4354;DHT22;11018;51.258;6.806;2023-07-16T00:43:10;19.40;56.40
4354;DHT22;11018;51.258;6.806;2023-07-16T00:45:36;19.30;57.80
4354;DHT22;11018;51.258;6.806;2023-07-16T00:48:02;19.10;59.40
4354;DHT22;11018;51.258;6.806;2023-07-16T00:50:29;18.80;61.20
4354;DHT22;11018;51.258;6.806;2023-07-16T00:53:02;18.80;62.70
4354;DHT22;11018;51.258;6.806;2023-07-16T00:55:29;18.80;62.80
4354;DHT22;11018;51.258;6.806;2023-07-16T00:57:58;18.70;64.40
4354;DHT22;11018;51.258;6.806;2023-07-16T01:00:27;18.70;64.60
4354;DHT22;11018;51.258;6.806;2023-07-16T01:02:52;18.40;67.10
4354;DHT22;11018;51.258;6.806;2023-07-16T01:05:18;18.30;69.70
4354;DHT22;11018;51.258;6.806;2023-07-16T01:07:57;18.40;69.60
4354;DHT22;11018;51.258;6.806;2023-07-16T01:10:25;18.40;69.90
4354;DHT22;11018;51.258;6.806;2023-07-16T01:12:54;18.30;70.50
4354;DHT22;11018;51.258;6.806;2023-07-16T01:15:20;18.20;72.00
4354;DHT22;11018;51.258;6.806;2023-07-16T01:17:46;18.20;73.20
4354;DHT22;11018;51.258;6.806;2023-07-16T01:20:11;18.10;73.80
4354;DHT22;11018;51.258;6.806;2023-07-16T01:31:15;18.60;69.00
4354;DHT22;11018;51.258;6.806;2023-07-16T01:33:42;18.90;65.60
4354;DHT22;11018;51.258;6.806;2023-07-16T01:36:08;18.80;65.60
4354;DHT22;11018;51.258;6.806;2023-07-16T01:38:35;18.70;66.50
4354;DHT22;11018;51.258;6.806;2023-07-16T01:41:01;18.60;66.90
4354;DHT22;11018;51.258;6.806;2023-07-16T01:43:27;18.60;65.80
4354;DHT22;11018;51.258;6.806;2023-07-16T01:45:52;18.50;66.00
4354;DHT22;11018;51.258;6.806;2023-07-16T01:48:35;18.50;64.60
4354;DHT22;11018;51.258;6.806;2023-07-16T01:51:03;18.30;66.00
4354;DHT22;11018;51.258;6.806;2023-07-16T01:53:29;18.10;67.90
4354;DHT22;11018;51.258;6.806;2023-07-16T01:55:54;18.10;68.10
4354;DHT22;11018;51.258;6.806;2023-07-16T01:58:20;18.00;69.50
4354;DHT22;11018;51.258;6.806;2023-07-16T02:00:46;17.90;69.20
4354;DHT22;11018;51.258;6.806;2023-07-16T02:03:13;18.20;67.60
4354;DHT22;11018;51.258;6.806;2023-07-16T02:05:39;18.10;66.70
4354;DHT22;11018;51.258;6.806;2023-07-16T02:08:04;18.10;66.50
4354;DHT22;11018;51.258;6.806;2023-07-16T02:10:30;18.10;66.40
4354;DHT22;11018;51.258;6.806;2023-07-16T02:12:56;18.10;65.20
4354;DHT22;11018;51.258;6.806;2023-07-16T02:15:21;18.20;64.50
4354;DHT22;11018;51.258;6.806;2023-07-16T02:17:47;18.20;62.50
4354;DHT22;11018;51.258;6.806;2023-07-16T02:20:13;18.20;62.30
4354;DHT22;11018;51.258;6.806;2023-07-16T02:22:39;18.20;62.20
4354;DHT22;11018;51.258;6.806;2023-07-16T02:25:05;18.20;62.50
4354;DHT22;11018;51.258;6.806;2023-07-16T02:27:31;18.20;61.90
4354;DHT22;11018;51.258;6.806;2023-07-16T02:29:56;18.30;61.60
4354;DHT22;11018;51.258;6.806;2023-07-16T02:32:22;18.20;62.20
4354;DHT22;11018;51.258;6.806;2023-07-16T02:34:48;18.20;61.00
4354;DHT22;11018;51.258;6.806;2023-07-16T02:37:13;18.20;61.20
4354;DHT22;11018;51.258;6.806;2023-07-16T02:39:41;18.20;60.30
4354;DHT22;11018;51.258;6.806;2023-07-16T02:42:07;18.20;60.40
4354;DHT22;11018;51.258;6.806;2023-07-16T02:44:32;18.10;60.20
4354;DHT22;11018;51.258;6.806;2023-07-16T02:46:58;18.00;60.90
4354;DHT22;11018;51.258;6.806;2023-07-16T02:49:23;18.10;60.30
4354;DHT22;11018;51.258;6.806;2023-07-16T02:51:49;18.10;59.60
4354;DHT22;11018;51.258;6.806;2023-07-16T02:54:14;18.10;58.90
4354;DHT22;11018;51.258;6.806;2023-07-16T02:56:40;18.00;59.10
4354;DHT22;11018;51.258;6.806;2023-07-16T02:59:06;18.10;58.30
4354;DHT22;11018;51.258;6.806;2023-07-16T03:01:31;18.00;57.00
4354;DHT22;11018;51.258;6.806;2023-07-16T03:03:57;18.00;56.80
4354;DHT22;11018;51.258;6.806;2023-07-16T03:06:22;18.00;55.00
4354;DHT22;11018;51.258;6.806;2023-07-16T03:08:48;17.90;54.80
4354;DHT22;11018;51.258;6.806;2023-07-16T03:11:14;18.00;54.20
4354;DHT22;11018;51.258;6.806;2023-07-16T03:13:39;18.00;52.20
4354;DHT22;11018;51.258;6.806;2023-07-16T03:16:05;18.00;52.70
4354;DHT22;11018;51.258;6.806;2023-07-16T03:18:30;18.00;50.40
4354;DHT22;11018;51.258;6.806;2023-07-16T03:20:57;18.00;49.50
4354;DHT22;11018;51.258;6.806;2023-07-16T03:23:23;18.00;49.20
4354;DHT22;11018;51.258;6.806;2023-07-16T03:25:49;18.00;47.30
4354;DHT22;11018;51.258;6.806;2023-07-16T03:28:15;18.00;46.80
4354;DHT22;11018;51.258;6.806;2023-07-16T03:30:44;17.90;48.20
4354;DHT22;11018;51.258;6.806;2023-07-16T03:33:10;17.90;46.10
4354;DHT22;11018;51.258;6.806;2023-07-16T03:35:35;18.00;46.30
4354;DHT22;11018;51.258;6.806;2023-07-16T03:38:01;17.90;46.10
4354;DHT22;11018;51.258;6.806;2023-07-16T03:40:27;18.00;45.00
4354;DHT22;11018;51.258;6.806;2023-07-16T03:42:52;18.00;45.10
4354;DHT22;11018;51.258;6.806;2023-07-16T03:45:19;17.90;45.00
4354;DHT22;11018;51.258;6.806;2023-07-16T03:47:45;17.80;45.60
4354;DHT22;11018;51.258;6.806;2023-07-16T03:50:10;17.80;45.50
4354;DHT22;11018;51.258;6.806;2023-07-16T03:52:36;17.90;44.10
4354;DHT22;11018;51.258;6.806;2023-07-16T03:55:02;17.90;43.80
4354;DHT22;11018;51.258;6.806;2023-07-16T03:57:28;17.90;43.40
4354;DHT22;11018;51.258;6.806;2023-07-16T03:59:54;17.90;43.30
4354;DHT22;11018;51.258;6.806;2023-07-16T04:02:20;17.90;43.30
4354;DHT22;11018;51.258;6.806;2023-07-16T04:04:45;17.90;43.10
4354;DHT22;11018;51.258;6.806;2023-07-16T04:07:12;17.90;43.40
4354;DHT22;11018;51.258;6.806;2023-07-16T04:09:38;17.80;42.90
4354;DHT22;11018;51.258;6.806;2023-07-16T04:12:04;17.80;41.90
4354;DHT22;11018;51.258;6.806;2023-07-16T04:14:30;17.90;40.50
4354;DHT22;11018;51.258;6.806;2023-07-16T04:16:56;17.90;40.60
4354;DHT22;11018;51.258;6.806;2023-07-16T04:19:21;17.90;40.70
4354;DHT22;11018;51.258;6.806;2023-07-16T04:21:47;17.90;40.50
4354;DHT22;11018;51.258;6.806;2023-07-16T04:24:13;18.00;39.80
4354;DHT22;11018;51.258;6.806;2023-07-16T04:26:38;18.00;40.20
4354;DHT22;11018;51.258;6.806;2023-07-16T04:29:04;18.00;40.00
4354;DHT22;11018;51.258;6.806;2023-07-16T04:31:29;18.00;39.80
4354;DHT22;11018;51.258;6.806;2023-07-16T04:33:55;18.00;40.80
4354;DHT22;11018;51.258;6.806;2023-07-16T04:36:20;18.00;39.70
4354;DHT22;11018;51.258;6.806;2023-07-16T04:38:46;18.00;38.80
4354;DHT22;11018;51.258;6.806;2023-07-16T04:41:11;18.20;38.40
4354;DHT22;11018;51.258;6.806;2023-07-16T04:43:38;18.30;37.90
4354;DHT22;11018;51.258;6.806;2023-07-16T04:46:04;18.20;38.40
4354;DHT22;11018;51.258;6.806;2023-07-16T04:48:29;18.10;38.90
4354;DHT22;11018;51.258;6.806;2023-07-16T04:50:55;18.10;38.60
4354;DHT22;11018;51.258;6.806;2023-07-16T04:53:21;18.10;38.90
4354;DHT22;11018;51.258;6.806;2023-07-16T04:55:47;18.10;38.50
4354;DHT22;11018;51.258;6.806;2023-07-16T04:58:13;18.20;38.20
4354;DHT22;11018;51.258;6.806;2023-07-16T05:00:38;18.20;38.40
4354;DHT22;11018;51.258;6.806;2023-07-16T05:03:04;18.10;38.80
4354;DHT22;11018;51.258;6.806;2023-07-16T05:05:29;18.20;39.10
4354;DHT22;11018;51.258;6.806;2023-07-16T05:07:55;18.30;38.90
4354;DHT22;11018;51.258;6.806;2023-07-16T05:10:21;18.30;38.80
4354;DHT22;11018;51.258;6.806;2023-07-16T05:12:46;18.40;38.80
4354;DHT22;11018;51.258;6.806;2023-07-16T05:15:12;18.30;38.60
4354;DHT22;11018;51.258;6.806;2023-07-16T05:17:37;18.40;38.20
4354;DHT22;11018;51.258;6.806;2023-07-16T05:20:03;18.50;38.10
4354;DHT22;11018;51.258;6.806;2023-07-16T05:22:29;18.60;38.20
4354;DHT22;11018;51.258;6.806;2023-07-16T05:24:55;18.60;37.10
4354;DHT22;11018;51.258;6.806;2023-07-16T05:27:20;18.60;36.70
4354;DHT22;11018;51.258;6.806;2023-07-16T05:29:46;18.60;37.00
4354;DHT22;11018;51.258;6.806;2023-07-16T05:32:13;18.60;36.80
4354;DHT22;11018;51.258;6.806;2023-07-16T05:34:38;18.70;36.00
4354;DHT22;11018;51.258;6.806;2023-07-16T05:37:05;18.80;35.50
4354;DHT22;11018;51.258;6.806;2023-07-16T05:39:30;18.80;35.60
4354;DHT22;11018;51.258;6.806;2023-07-16T05:41:56;18.90;34.70
4354;DHT22;11018;51.258;6.806;2023-07-16T05:44:21;19.00;33.80
4354;DHT22;11018;51.258;6.806;2023-07-16T05:46:47;19.00;33.80
4354;DHT22;11018;51.258;6.806;2023-07-16T05:49:13;19.00;33.20
4354;DHT22;11018;51.258;6.806;2023-07-16T05:51:39;19.00;33.50
4354;DHT22;11018;51.258;6.806;2023-07-16T05:54:04;19.00;32.90
4354;DHT22;11018;51.258;6.806;2023-07-16T05:56:30;19.00;32.70
4354;DHT22;11018;51.258;6.806;2023-07-16T05:58:55;19.00;31.80
4354;DHT22;11018;51.258;6.806;2023-07-16T06:01:21;19.10;31.50
4354;DHT22;11018;51.258;6.806;2023-07-16T06:03:47;19.10;30.60
4354;DHT22;11018;51.258;6.806;2023-07-16T06:06:12;19.20;30.30
4354;DHT22;11018;51.258;6.806;2023-07-16T06:08:38;19.20;30.00
4354;DHT22;11018;51.258;6.806;2023-07-16T06:11:04;19.20;30.20
4354;DHT22;11018;51.258;6.806;2023-07-16T06:13:30;19.20;30.40
4354;DHT22;11018;51.258;6.806;2023-07-16T06:15:55;19.30;30.20
4354;DHT22;11018;51.258;6.806;2023-07-16T06:18:21;19.30;29.00
4354;DHT22;11018;51.258;6.806;2023-07-16T06:20:46;19.30;29.40
4354;DHT22;11018;51.258;6.806;2023-07-16T06:23:12;19.30;28.80
4354;DHT22;11018;51.258;6.806;2023-07-16T06:25:38;19.30;29.00
4354;DHT22;11018;51.258;6.806;2023-07-16T06:28:06;19.50;28.80
4354;DHT22;11018;51.258;6.806;2023-07-16T06:30:31;19.50;27.90
4354;DHT22;11018;51.258;6.806;2023-07-16T06:32:58;19.50;28.20
4354;DHT22;11018;51.258;6.806;2023-07-16T06:35:23;19.60;27.70
4354;DHT22;11018;51.258;6.806;2023-07-16T06:37:49;19.70;28.00
4354;DHT22;11018;51.258;6.806;2023-07-16T06:40:15;19.70;26.50
4354;DHT22;11018;51.258;6.806;2023-07-16T06:42:40;19.70;27.30
4354;DHT22;11018;51.258;6.806;2023-07-16T06:45:07;19.80;26.90
4354;DHT22;11018;51.258;6.806;2023-07-16T06:47:32;19.80;26.30
4354;DHT22;11018;51.258;6.806;2023-07-16T06:49:58;19.80;26.00
4354;DHT22;11018;51.258;6.806;2023-07-16T06:52:24;19.90;26.00
4354;DHT22;11018;51.258;6.806;2023-07-16T06:54:53;20.10;25.70
4354;DHT22;11018;51.258;6.806;2023-07-16T06:57:18;20.20;25.20
4354;DHT22;11018;51.258;6.806;2023-07-16T06:59:44;20.20;24.60
4354;DHT22;11018;51.258;6.806;2023-07-16T07:02:10;20.10;24.50
4354;DHT22;11018;51.258;6.806;2023-07-16T07:04:36;20.20;24.90
4354;DHT22;11018;51.258;6.806;2023-07-16T07:07:01;20.20;23.90
4354;DHT22;11018;51.258;6.806;2023-07-16T07:09:27;20.20;23.60
4354;DHT22;11018;51.258;6.806;2023-07-16T07:11:52;20.20;23.40
4354;DHT22;11018;51.258;6.806;2023-07-16T07:14:18;20.10;23.50
4354;DHT22;11018;51.258;6.806;2023-07-16T07:16:43;20.00;23.80
4354;DHT22;11018;51.258;6.806;2023-07-16T07:19:09;20.10;24.10
4354;DHT22;11018;51.258;6.806;2023-07-16T07:21:34;20.20;23.70
4354;DHT22;11018;51.258;6.806;2023-07-16T07:24:00;20.30;23.50
4354;DHT22;11018;51.258;6.806;2023-07-16T07:26:26;20.30;23.60
4354;DHT22;11018;51.258;6.806;2023-07-16T07:28:51;20.40;23.00
4354;DHT22;11018;51.258;6.806;2023-07-16T07:31:17;20.30;23.00
4354;DHT22;11018;51.258;6.806;2023-07-16T07:33:42;20.40;23.50
4354;DHT22;11018;51.258;6.806;2023-07-16T07:36:08;20.40;22.80
4354;DHT22;11018;51.258;6.806;2023-07-16T07:38:33;20.40;22.40
4354;DHT22;11018;51.258;6.806;2023-07-16T07:40:59;20.30;22.30
4354;DHT22;11018;51.258;6.806;2023-07-16T07:43:24;20.40;22.90
4354;DHT22;11018;51.258;6.806;2023-07-16T07:45:50;20.40;23.10
4354;DHT22;11018;51.258;6.806;2023-07-16T07:48:16;20.50;22.70
4354;DHT22;11018;51.258;6.806;2023-07-16T07:50:41;20.50;22.40
4354;DHT22;11018;51.258;6.806;2023-07-16T07:53:07;20.60;22.00
4354;DHT22;11018;51.258;6.806;2023-07-16T07:55:34;20.70;21.10
4354;DHT22;11018;51.258;6.806;2023-07-16T07:58:00;20.60;20.60
4354;DHT22;11018;51.258;6.806;2023-07-16T08:00:26;20.70;21.00
4354;DHT22;11018;51.258;6.806;2023-07-16T08:02:51;20.70;20.90
4354;DHT22;11018;51.258;6.806;2023-07-16T08:05:17;20.70;21.70
4354;DHT22;11018;51.258;6.806;2023-07-16T08:07:43;20.70;21.20
4354;DHT22;11018;51.258;6.806;2023-07-16T08:10:08;20.70;21.30
4354;DHT22;11018;51.258;6.806;2023-07-16T08:12:34;20.80;20.90
4354;DHT22;11018;51.258;6.806;2023-07-16T08:14:59;20.90;20.40
4354;DHT22;11018;51.258;6.806;2023-07-16T08:17:25;21.00;20.20
4354;DHT22;11018;51.258;6.806;2023-07-16T08:19:51;21.00;20.30
4354;DHT22;11018;51.258;6.806;2023-07-16T08:22:16;21.20;20.00
4354;DHT22;11018;51.258;6.806;2023-07-16T08:24:42;21.40;19.80
4354;DHT22;11018;51.258;6.806;2023-07-16T08:27:08;21.60;18.90
4354;DHT22;11018;51.258;6.806;2023-07-16T08:29:35;21.70;18.80
4354;DHT22;11018;51.258;6.806;2023-07-16T08:32:01;22.00;17.90
4354;DHT22;11018;51.258;6.806;2023-07-16T08:34:28;22.10;17.80
4354;DHT22;11018;51.258;6.806;2023-07-16T08:36:53;21.90;18.30
4354;DHT22;11018;51.258;6.806;2023-07-16T08:39:19;22.00;18.00
4354;DHT22;11018;51.258;6.806;2023-07-16T08:41:46;22.10;17.50
4354;DHT22;11018;51.258;6.806;2023-07-16T08:44:12;22.00;17.20
4354;DHT22;11018;51.258;6.806;2023-07-16T08:46:39;21.80;17.60
4354;DHT22;11018;51.258;6.806;2023-07-16T08:49:07;21.80;17.40
4354;DHT22;11018;51.258;6.806;2023-07-16T08:51:34;22.10;17.00
4354;DHT22;11018;51.258;6.806;2023-07-16T08:54:00;22.90;16.50
4354;DHT22;11018;51.258;6.806;2023-07-16T08:56:26;23.10;15.60
4354;DHT22;11018;51.258;6.806;2023-07-16T08:58:55;23.30;14.80
4354;DHT22;11018;51.258;6.806;2023-07-16T09:01:21;23.50;14.20
4354;DHT22;11018;51.258;6.806;2023-07-16T09:03:47;23.60;14.20
4354;DHT22;11018;51.258;6.806;2023-07-16T09:06:13;23.70;13.60
4354;DHT22;11018;51.258;6.806;2023-07-16T09:11:11;23.80;13.70
4354;DHT22;11018;51.258;6.806;2023-07-16T09:13:36;23.90;13.70
4354;DHT22;11018;51.258;6.806;2023-07-16T09:16:02;24.00;13.10
4354;DHT22;11018;51.258;6.806;2023-07-16T09:18:28;23.80;13.30
4354;DHT22;11018;51.258;6.806;2023-07-16T09:21:00;23.90;13.60
4354;DHT22;11018;51.258;6.806;2023-07-16T09:23:33;24.00;12.80
4354;DHT22;11018;51.258;6.806;2023-07-16T09:25:59;24.10;12.60
4354;DHT22;11018;51.258;6.806;2023-07-16T09:28:25;24.00;13.00
4354;DHT22;11018;51.258;6.806;2023-07-16T09:30:51;24.10;13.00
4354;DHT22;11018;51.258;6.806;2023-07-16T09:33:19;24.30;12.10
4354;DHT22;11018;51.258;6.806;2023-07-16T09:35:51;24.30;12.60
4354;DHT22;11018;51.258;6.806;2023-07-16T09:38:18;24.50;12.20
4354;DHT22;11018;51.258;6.806;2023-07-16T09:40:44;24.50;11.70
4354;DHT22;11018;51.258;6.806;2023-07-16T09:43:11;24.60;12.30
4354;DHT22;11018;51.258;6.806;2023-07-16T09:45:37;24.50;12.30
4354;DHT22;11018;51.258;6.806;2023-07-16T09:48:03;24.50;12.60
4354;DHT22;11018;51.258;6.806;2023-07-16T09:50:33;24.20;12.30
4354;DHT22;11018;51.258;6.806;2023-07-16T09:53:00;23.80;13.20
4354;DHT22;11018;51.258;6.806;2023-07-16T09:55:26;23.70;13.10
4354;DHT22;11018;51.258;6.806;2023-07-16T09:57:54;23.80;13.10
4354;DHT22;11018;51.258;6.806;2023-07-16T10:00:21;24.00;13.10
4354;DHT22;11018;51.258;6.806;2023-07-16T10:02:48;24.40;12.50
4354;DHT22;11018;51.258;6.806;2023-07-16T10:05:16;24.50;12.80
4354;DHT22;11018;51.258;6.806;2023-07-16T10:07:42;24.70;12.80
4354;DHT22;11018;51.258;6.806;2023-07-16T10:10:10;24.70;11.50
4354;DHT22;11018;51.258;6.806;2023-07-16T10:12:37;24.70;11.70
4354;DHT22;11018;51.258;6.806;2023-07-16T10:15:05;24.40;12.40
4354;DHT22;11018;51.258;6.806;2023-07-16T10:17:32;24.30;12.40
4354;DHT22;11018;51.258;6.806;2023-07-16T10:19:59;24.30;13.20
4354;DHT22;11018;51.258;6.806;2023-07-16T10:22:32;24.70;12.10
4354;DHT22;11018;51.258;6.806;2023-07-16T10:24:59;25.00;11.30
4354;DHT22;11018;51.258;6.806;2023-07-16T10:27:31;24.80;11.10
4354;DHT22;11018;51.258;6.806;2023-07-16T10:29:58;24.50;12.30
4354;DHT22;11018;51.258;6.806;2023-07-16T10:32:27;24.50;12.60
4354;DHT22;11018;51.258;6.806;2023-07-16T10:34:53;24.60;12.80
4354;DHT22;11018;51.258;6.806;2023-07-16T10:37:19;24.70;12.10
4354;DHT22;11018;51.258;6.806;2023-07-16T10:39:48;25.00;11.70
4354;DHT22;11018;51.258;6.806;2023-07-16T10:42:16;24.90;11.50
4354;DHT22;11018;51.258;6.806;2023-07-16T10:44:42;25.20;11.50
4354;DHT22;11018;51.258;6.806;2023-07-16T10:47:09;25.20;11.00
4354;DHT22;11018;51.258;6.806;2023-07-16T10:49:34;25.20;10.90
4354;DHT22;11018;51.258;6.806;2023-07-16T10:52:01;25.50;10.90
4354;DHT22;11018;51.258;6.806;2023-07-16T10:54:26;25.70;9.40
4354;DHT22;11018;51.258;6.806;2023-07-16T10:56:52;25.80;9.90
4354;DHT22;11018;51.258;6.806;2023-07-16T10:59:18;26.20;8.70
4354;DHT22;11018;51.258;6.806;2023-07-16T11:01:44;26.40;8.40
4354;DHT22;11018;51.258;6.806;2023-07-16T11:04:10;26.40;8.50
4354;DHT22;11018;51.258;6.806;2023-07-16T11:06:36;26.30;9.20
4354;DHT22;11018;51.258;6.806;2023-07-16T11:09:09;26.10;8.80
4354;DHT22;11018;51.258;6.806;2023-07-16T11:11:34;26.10;8.80
4354;DHT22;11018;51.258;6.806;2023-07-16T11:14:04;26.00;9.10
4354;DHT22;11018;51.258;6.806;2023-07-16T11:16:34;26.10;8.10
4354;DHT22;11018;51.258;6.806;2023-07-16T11:19:02;25.90;8.60
4354;DHT22;11018;51.258;6.806;2023-07-16T11:21:28;25.60;8.80
4354;DHT22;11018;51.258;6.806;2023-07-16T11:23:53;25.20;10.10
4354;DHT22;11018;51.258;6.806;2023-07-16T11:26:19;25.20;10.00
4354;DHT22;11018;51.258;6.806;2023-07-16T11:28:44;25.10;10.00
4354;DHT22;11018;51.258;6.806;2023-07-16T11:31:14;25.30;9.70
4354;DHT22;11018;51.258;6.806;2023-07-16T11:33:46;25.20;9.70
4354;DHT22;11018;51.258;6.806;2023-07-16T11:36:13;25.20;9.60
4354;DHT22;11018;51.258;6.806;2023-07-16T11:38:39;25.20;10.00
4354;DHT22;11018;51.258;6.806;2023-07-16T11:41:05;25.30;9.60
4354;DHT22;11018;51.258;6.806;2023-07-16T11:43:37;25.60;9.00
4354;DHT22;11018;51.258;6.806;2023-07-16T11:46:14;25.70;9.40
4354;DHT22;11018;51.258;6.806;2023-07-16T11:48:41;25.40;9.20
4354;DHT22;11018;51.258;6.806;2023-07-16T11:51:07;25.30;9.90
4354;DHT22;11018;51.258;6.806;2023-07-16T11:53:32;25.70;10.00
4354;DHT22;11018;51.258;6.806;2023-07-16T11:55:58;26.10;9.00
4354;DHT22;11018;51.258;6.806;2023-07-16T11:58:23;25.90;8.40
4354;DHT22;11018;51.258;6.806;2023-07-16T12:00:49;25.50;9.90
4354;DHT22;11018;51.258;6.806;2023-07-16T12:03:16;25.70;9.60
4354;DHT22;11018;51.258;6.806;2023-07-16T12:05:42;25.90;8.70
4354;DHT22;11018;51.258;6.806;2023-07-16T12:08:07;26.30;8.50
4354;DHT22;11018;51.258;6.806;2023-07-16T12:10:42;26.60;8.50
4354;DHT22;11018;51.258;6.806;2023-07-16T12:13:08;26.50;8.00
4354;DHT22;11018;51.258;6.806;2023-07-16T12:15:33;26.40;8.20
4354;DHT22;11018;51.258;6.806;2023-07-16T12:17:59;26.40;7.90
4354;DHT22;11018;51.258;6.806;2023-07-16T12:20:25;26.20;8.50
4354;DHT22;11018;51.258;6.806;2023-07-16T12:22:50;26.50;8.10
4354;DHT22;11018;51.258;6.806;2023-07-16T12:25:16;26.60;7.10
4354;DHT22;11018;51.258;6.806;2023-07-16T12:27:44;26.30;7.80
4354;DHT22;11018;51.258;6.806;2023-07-16T12:30:09;26.30;8.30
4354;DHT22;11018;51.258;6.806;2023-07-16T12:32:36;26.30;7.70
4354;DHT22;11018;51.258;6.806;2023-07-16T12:35:01;26.90;7.20
4354;DHT22;11018;51.258;6.806;2023-07-16T12:37:28;27.40;5.90
4354;DHT22;11018;51.258;6.806;2023-07-16T12:39:54;27.20;6.50
4354;DHT22;11018;51.258;6.806;2023-07-16T12:42:20;27.20;5.90
4354;DHT22;11018;51.258;6.806;2023-07-16T12:44:45;27.10;6.20
4354;DHT22;11018;51.258;6.806;2023-07-16T12:47:11;27.20;6.50
4354;DHT22;11018;51.258;6.806;2023-07-16T12:49:37;27.00;6.60
4354;DHT22;11018;51.258;6.806;2023-07-16T12:52:02;27.00;7.10
4354;DHT22;11018;51.258;6.806;2023-07-16T12:54:28;27.40;5.60
4354;DHT22;11018;51.258;6.806;2023-07-16T12:56:54;27.10;6.10
4354;DHT22;11018;51.258;6.806;2023-07-16T12:59:20;26.70;7.70
4354;DHT22;11018;51.258;6.806;2023-07-16T13:01:46;27.20;6.70
4354;DHT22;11018;51.258;6.806;2023-07-16T13:04:11;26.90;6.30
4354;DHT22;11018;51.258;6.806;2023-07-16T13:06:37;26.90;6.40
4354;DHT22;11018;51.258;6.806;2023-07-16T13:09:03;27.00;7.30
4354;DHT22;11018;51.258;6.806;2023-07-16T13:11:30;27.00;6.50
4354;DHT22;11018;51.258;6.806;2023-07-16T13:13:56;26.80;6.00
4354;DHT22;11018;51.258;6.806;2023-07-16T13:16:21;26.60;6.60
4354;DHT22;11018;51.258;6.806;2023-07-16T13:18:47;26.50;7.60
4354;DHT22;11018;51.258;6.806;2023-07-16T13:21:13;26.50;7.00
4354;DHT22;11018;51.258;6.806;2023-07-16T13:23:38;26.90;6.30
4354;DHT22;11018;51.258;6.806;2023-07-16T13:26:04;27.10;6.80
4354;DHT22;11018;51.258;6.806;2023-07-16T13:28:29;26.90;5.50
4354;DHT22;11018;51.258;6.806;2023-07-16T13:30:55;26.60;6.00
4354;DHT22;11018;51.258;6.806;2023-07-16T13:33:20;26.30;6.90
4354;DHT22;11018;51.258;6.806;2023-07-16T13:35:46;26.10;7.40
4354;DHT22;11018;51.258;6.806;2023-07-16T13:38:11;25.90;8.50
4354;DHT22;11018;51.258;6.806;2023-07-16T13:40:37;25.90;8.00
4354;DHT22;11018;51.258;6.806;2023-07-16T13:43:02;26.20;8.20
4354;DHT22;11018;51.258;6.806;2023-07-16T13:45:28;26.20;8.00
4354;DHT22;11018;51.258;6.806;2023-07-16T13:47:54;26.00;8.60
4354;DHT22;11018;51.258;6.806;2023-07-16T13:50:20;25.70;9.00
4354;DHT22;11018;51.258;6.806;2023-07-16T13:52:46;25.60;8.80
4354;DHT22;11018;51.258;6.806;2023-07-16T13:55:12;25.50;8.90
4354;DHT22;11018;51.258;6.806;2023-07-16T13:57:37;25.30;9.80
4354;DHT22;11018;51.258;6.806;2023-07-16T14:00:03;25.80;9.10
4354;DHT22;11018;51.258;6.806;2023-07-16T14:02:30;26.50;8.40
4354;DHT22;11018;51.258;6.806;2023-07-16T14:04:55;26.70;7.80
4354;DHT22;11018;51.258;6.806;2023-07-16T14:07:22;26.60;8.00
4354;DHT22;11018;51.258;6.806;2023-07-16T14:09:47;26.80;8.20
4354;DHT22;11018;51.258;6.806;2023-07-16T14:12:13;27.10;7.70
4354;DHT22;11018;51.258;6.806;2023-07-16T14:14:39;27.10;7.70
4354;DHT22;11018;51.258;6.806;2023-07-16T14:17:05;27.90;6.20
4354;DHT22;11018;51.258;6.806;2023-07-16T14:19:30;28.50;4.40
4354;DHT22;11018;51.258;6.806;2023-07-16T14:21:56;28.20;5.30
4354;DHT22;11018;51.258;6.806;2023-07-16T14:24:21;27.90;5.60
4354;DHT22;11018;51.258;6.806;2023-07-16T14:26:47;27.90;5.80
4354;DHT22;11018;51.258;6.806;2023-07-16T14:29:14;27.80;5.00
4354;DHT22;11018;51.258;6.806;2023-07-16T14:31:40;27.60;5.90
4354;DHT22;11018;51.258;6.806;2023-07-16T14:34:06;27.00;6.50
4354;DHT22;11018;51.258;6.806;2023-07-16T14:36:32;26.70;6.50
4354;DHT22;11018;51.258;6.806;2023-07-16T14:38:57;26.80;7.50
4354;DHT22;11018;51.258;6.806;2023-07-16T14:41:23;27.30;6.20
4354;DHT22;11018;51.258;6.806;2023-07-16T14:43:49;27.70;5.60
4354;DHT22;11018;51.258;6.806;2023-07-16T14:46:16;27.80;5.70
4354;DHT22;11018;51.258;6.806;2023-07-16T14:48:45;27.80;5.10
4354;DHT22;11018;51.258;6.806;2023-07-16T14:51:11;27.50;5.90
4354;DHT22;11018;51.258;6.806;2023-07-16T14:53:37;27.50;6.40
4354;DHT22;11018;51.258;6.806;2023-07-16T14:56:03;27.20;6.30
4354;DHT22;11018;51.258;6.806;2023-07-16T14:58:33;26.80;7.00
4354;DHT22;11018;51.258;6.806;2023-07-16T15:01:02;26.30;7.70
4354;DHT22;11018;51.258;6.806;2023-07-16T15:03:31;26.00;8.40
4354;DHT22;11018;51.258;6.806;2023-07-16T15:05:58;26.00;8.50
4354;DHT22;11018;51.258;6.806;2023-07-16T15:08:24;25.90;8.30
4354;DHT22;11018;51.258;6.806;2023-07-16T15:10:50;25.60;8.50
4354;DHT22;11018;51.258;6.806;2023-07-16T15:13:17;25.60;8.70
4354;DHT22;11018;51.258;6.806;2023-07-16T15:15:56;25.70;8.30
4354;DHT22;11018;51.258;6.806;2023-07-16T15:18:25;26.10;8.10
4354;DHT22;11018;51.258;6.806;2023-07-16T15:20:59;26.30;7.90
4354;DHT22;11018;51.258;6.806;2023-07-16T15:23:28;26.70;7.30
4354;DHT22;11018;51.258;6.806;2023-07-16T15:25:55;27.50;6.30
4354;DHT22;11018;51.258;6.806;2023-07-16T15:28:25;28.00;6.10
4354;DHT22;11018;51.258;6.806;2023-07-16T15:30:51;27.70;5.40
4354;DHT22;11018;51.258;6.806;2023-07-16T15:33:16;27.80;5.20
4354;DHT22;11018;51.258;6.806;2023-07-16T15:35:42;28.00;5.50
4354;DHT22;11018;51.258;6.806;2023-07-16T15:38:07;28.20;4.50
4354;DHT22;11018;51.258;6.806;2023-07-16T15:40:34;27.90;4.60
4354;DHT22;11018;51.258;6.806;2023-07-16T15:43:00;27.60;5.40
4354;DHT22;11018;51.258;6.806;2023-07-16T15:45:26;27.30;5.80
4354;DHT22;11018;51.258;6.806;2023-07-16T15:47:51;27.30;6.20
4354;DHT22;11018;51.258;6.806;2023-07-16T15:50:23;27.20;6.10
4354;DHT22;11018;51.258;6.806;2023-07-16T15:52:48;26.70;6.50
4354;DHT22;11018;51.258;6.806;2023-07-16T15:55:14;26.40;8.30